Time;durP1;ratioP1;P1;durP2;ratioP2;P2;SDS_P1;SDS_P2;PMS_P1;PMS_P2;Temp;Humidity;BMP_temperature;BMP_pressure;BME280_temperature;BME280_humidity;BME280_pressure;Samples;Min_cycle;Max_cycle;Signal;HPM_P1;HPM_P2
2022/02/05 00:00:31;;;;;;;14.02;2.50;;;3.10;99.90;;;;;;4976802;28;20206;-92
2022/02/05 00:08:23;;;;;;;12.55;2.22;;;3.20;99.90;;;;;;4977897;28;20034;-90
2022/02/05 00:43:13;;;;;;;13.32;2.97;;;3.40;99.90;;;;;;4997003;28;20026;-91
2022/02/05 00:45:44;;;;;;;12.02;3.45;;;3.50;99.90;;;;;;4979853;28;20034;-90
2022/02/05 00:48:12;;;;;;;13.02;3.40;;;3.50;99.90;;;;;;4979761;28;20025;-91
2022/02/05 00:50:41;;;;;;;12.48;3.35;;;3.50;99.90;;;;;;4979935;28;20030;-90
2022/02/05 00:55:40;;;;;;;15.15;3.95;;;3.50;99.90;;;;;;4996999;28;20451;-91
2022/02/05 00:58:07;;;;;;;13.10;3.95;;;3.50;99.90;;;;;;4979635;28;20030;-91
2022/02/05 01:00:36;;;;;;;12.98;3.03;;;3.50;99.90;;;;;;4979592;28;20134;-90
2022/02/05 01:03:03;;;;;;;12.82;3.47;;;3.50;99.90;;;;;;4978993;28;20136;-90
2022/02/05 01:05:29;;;;;;;12.82;3.08;;;3.50;99.90;;;;;;4979179;28;20123;-91
2022/02/05 01:07:58;;;;;;;24.05;3.40;;;3.50;99.90;;;;;;4978837;28;20471;-91
2022/02/05 01:10:26;;;;;;;13.25;2.97;;;3.50;99.90;;;;;;4979187;28;20038;-90
2022/02/05 01:12:58;;;;;;;6.75;2.88;;;3.50;99.90;;;;;;4979151;28;20026;-90
2022/02/05 01:15:29;;;;;;;16.85;3.53;;;3.50;99.90;;;;;;4978906;28;20023;-92
2022/02/05 01:18:02;;;;;;;16.23;3.97;;;3.50;99.90;;;;;;4978701;28;20037;-91
2022/02/05 01:23:15;;;;;;;19.20;3.60;;;3.50;99.90;;;;;;4996111;28;20534;-90
2022/02/05 01:25:52;;;;;;;10.30;3.85;;;3.50;99.90;;;;;;4978407;28;20026;-91
2022/02/05 01:28:23;;;;;;;18.77;3.35;;;3.50;99.90;;;;;;4964567;28;20062;-90
2022/02/05 01:30:53;;;;;;;15.23;2.50;;;3.50;99.90;;;;;;4975297;28;20057;-90
2022/02/05 01:52:14;;;;;;;19.15;3.13;;;3.60;99.90;;;;;;4976686;28;20034;-88
2022/02/05 01:55:04;;;;;;;24.20;3.60;;;3.60;99.90;;;;;;4976762;28;20036;-89
2022/02/05 01:57:43;;;;;;;17.45;2.83;;;3.50;99.90;;;;;;4976468;28;20475;-89
2022/02/05 02:05:34;;;;;;;13.50;2.55;;;3.60;99.90;;;;;;4995386;28;20037;-89
2022/02/05 02:13:26;;;;;;;;;;;3.70;99.90;;;;;;4976822;28;20019;-90
2022/02/05 02:16:07;;;;;;;10.75;2.47;;;3.70;99.90;;;;;;4975033;28;19916;-91
2022/02/05 02:21:39;;;;;;;14.88;2.40;;;3.70;99.90;;;;;;4977307;28;20050;-90
2022/02/05 02:24:15;;;;;;;13.00;2.50;;;3.60;99.90;;;;;;4983106;28;20094;-90
2022/02/05 02:29:23;;;;;;;10.75;3.15;;;3.60;99.90;;;;;;5007612;28;20137;-91
2022/02/05 02:31:50;;;;;;;18.77;3.55;;;3.60;99.90;;;;;;4994408;28;20454;-89
2022/02/05 02:34:22;;;;;;;27.05;4.13;;;3.60;99.90;;;;;;4983517;28;20026;-90
2022/02/05 02:36:53;;;;;;;13.43;3.92;;;3.60;99.90;;;;;;4980571;28;20061;-90
2022/02/05 02:39:25;;;;;;;15.55;3.97;;;3.60;99.90;;;;;;4979961;28;20026;-91
2022/02/05 02:42:02;;;;;;;21.48;4.95;;;3.70;99.90;;;;;;4979465;28;20034;-90
2022/02/05 02:44:28;;;;;;;16.35;3.85;;;3.60;99.90;;;;;;4979793;28;20029;-92
2022/02/05 02:46:54;;;;;;;19.92;3.45;;;3.60;99.90;;;;;;4979470;28;20547;-89
2022/02/05 02:49:23;;;;;;;23.98;4.20;;;3.70;99.90;;;;;;4978304;28;20484;-89
2022/02/05 02:57:23;;;;;;;26.35;5.07;;;3.70;99.90;;;;;;4996292;28;20088;-90
2022/02/05 02:59:59;;;;;;;19.52;4.60;;;3.70;99.90;;;;;;4978268;28;20027;-90
2022/02/05 03:02:27;;;;;;;18.38;3.80;;;3.70;99.90;;;;;;4978406;28;20034;-90
2022/02/05 03:04:54;;;;;;;16.83;3.95;;;3.70;99.90;;;;;;4978184;28;20085;-90
2022/02/05 03:07:21;;;;;;;17.67;3.28;;;3.80;99.90;;;;;;4978097;28;20038;-90
2022/02/05 03:09:47;;;;;;;27.10;4.38;;;3.70;99.90;;;;;;4978540;28;20033;-90
2022/02/05 03:12:13;;;;;;;17.08;5.10;;;3.80;99.90;;;;;;4977885;28;20465;-90
2022/02/05 03:14:39;;;;;;;21.27;3.97;;;3.80;99.90;;;;;;4978365;28;20022;-91
2022/02/05 03:17:16;;;;;;;18.85;4.38;;;3.80;99.90;;;;;;4978788;28;20030;-90
2022/02/05 03:19:44;;;;;;;21.73;4.88;;;3.80;99.90;;;;;;4977688;28;20030;-89
2022/02/05 03:22:11;;;;;;;17.27;3.60;;;3.80;99.90;;;;;;4977374;28;20030;-90
2022/02/05 03:24:37;;;;;;;9.55;2.58;;;3.80;99.90;;;;;;4977657;28;20058;-90
2022/02/05 03:27:03;;;;;;;19.63;4.43;;;3.80;99.90;;;;;;4977919;28;20034;-90
2022/02/05 03:29:29;;;;;;;15.82;3.03;;;3.80;99.90;;;;;;4977640;28;20074;-91
2022/02/05 03:31:54;;;;;;;13.30;2.85;;;3.80;99.90;;;;;;4979130;28;20037;-89
2022/02/05 03:34:20;;;;;;;23.95;3.35;;;3.80;99.90;;;;;;4981689;28;20062;-91
2022/02/05 03:36:45;;;;;;;21.08;2.90;;;3.80;99.90;;;;;;4981309;28;20030;-89
2022/02/05 03:39:11;;;;;;;26.65;4.75;;;3.70;99.90;;;;;;4981588;28;20058;-93
2022/02/05 03:41:37;;;;;;;15.85;3.80;;;3.70;99.90;;;;;;4983707;28;20034;-90
2022/02/05 03:44:03;;;;;;;3.78;1.50;;;3.70;99.90;;;;;;4986183;28;20026;-90
2022/02/05 03:46:29;;;;;;;17.02;3.35;;;3.80;99.90;;;;;;4986713;28;20026;-91
2022/02/05 03:48:56;;;;;;;17.65;3.95;;;3.70;99.90;;;;;;4981825;28;20026;-91
2022/02/05 03:51:21;;;;;;;16.50;2.58;;;3.80;99.90;;;;;;4981098;28;20030;-90
2022/02/05 03:53:47;;;;;;;12.40;2.55;;;3.70;99.90;;;;;;4981289;28;20546;-91
2022/02/05 03:56:13;;;;;;;17.83;3.22;;;3.70;99.90;;;;;;4981373;28;20526;-90
2022/02/05 03:58:39;;;;;;;23.17;3.03;;;3.70;99.90;;;;;;4980992;28;20077;-90
2022/02/05 04:01:04;;;;;;;17.23;4.13;;;3.70;99.90;;;;;;4981075;28;20491;-91
2022/02/05 04:03:30;;;;;;;21.15;3.05;;;3.70;99.90;;;;;;4981322;28;20023;-91
2022/02/05 04:05:57;;;;;;;15.68;3.05;;;3.70;99.90;;;;;;4980975;28;20472;-91
2022/02/05 04:08:23;;;;;;;16.10;2.22;;;3.70;99.90;;;;;;4980809;28;20088;-90
2022/02/05 04:11:00;;;;;;;11.25;2.38;;;3.70;99.90;;;;;;4981525;28;20030;-90
2022/02/05 04:16:22;;;;;;;14.18;3.13;;;3.70;99.90;;;;;;4991489;28;20503;-89
2022/02/05 04:18:52;;;;;;;21.70;2.65;;;3.70;99.90;;;;;;4984129;28;20038;-91
2022/02/05 04:21:18;;;;;;;;;;;3.70;99.90;;;;;;4969642;28;20030;-90
2022/02/05 04:23:44;;;;;;;12.05;2.20;;;3.70;99.90;;;;;;4994604;28;19953;-90
2022/02/05 04:26:10;;;;;;;15.82;2.80;;;3.70;99.90;;;;;;4968835;28;20030;-91
2022/02/05 04:28:36;;;;;;;12.15;1.90;;;3.70;99.90;;;;;;4971284;28;20824;-90
2022/02/05 04:31:03;;;;;;;11.90;2.30;;;3.70;99.90;;;;;;4969012;28;20023;-91
2022/02/05 04:33:28;;;;;;;7.20;1.70;;;3.80;99.90;;;;;;4971619;28;20018;-90
2022/02/05 04:35:54;;;;;;;14.15;2.05;;;3.70;99.90;;;;;;4987555;28;20023;-89
2022/02/05 04:38:21;;;;;;;15.82;2.00;;;3.70;99.90;;;;;;4987156;28;20022;-90
2022/02/05 04:41:14;;;;;;;11.80;1.90;;;3.70;99.90;;;;;;4974520;28;20030;-91
2022/02/05 04:49:23;;;;;;;16.50;2.30;;;3.70;99.90;;;;;;4994502;28;20556;-90
2022/02/05 05:04:36;;;;;;;14.45;1.85;;;3.50;99.90;;;;;;4996605;28;20029;-92
2022/02/05 05:12:35;;;;;;;8.70;2.15;;;3.40;99.90;;;;;;4996262;28;20089;-89
2022/02/05 05:20:29;;;;;;;8.65;2.15;;;3.30;99.90;;;;;;4997101;28;20037;-92
2022/02/05 05:22:54;;;;;;;9.27;1.88;;;3.30;99.90;;;;;;4978309;28;20027;-91
2022/02/05 05:25:21;;;;;;;12.30;2.33;;;3.30;99.90;;;;;;4978394;28;20032;-91
2022/02/05 05:27:46;;;;;;;12.05;1.70;;;3.30;99.90;;;;;;4977633;28;20073;-92
2022/02/05 05:30:13;;;;;;;11.77;1.88;;;3.30;99.90;;;;;;4978066;28;20057;-92
2022/02/05 05:32:39;;;;;;;12.25;1.70;;;3.30;99.90;;;;;;4977258;28;20037;-91
2022/02/05 05:35:05;;;;;;;7.03;1.60;;;3.20;99.90;;;;;;4961235;28;20038;-90
2022/02/05 05:37:31;;;;;;;10.65;1.98;;;3.20;99.90;;;;;;4977627;28;20023;-92
2022/02/05 05:39:57;;;;;;;8.00;1.42;;;3.20;99.90;;;;;;4977215;28;20431;-90
2022/02/05 05:42:27;;;;;;;18.30;3.63;;;3.20;99.90;;;;;;4977148;28;20129;-93
2022/02/05 05:52:27;;;;;;;11.00;1.40;;;3.20;99.90;;;;;;4996527;28;20034;-89
2022/02/05 05:54:53;;;;;;;9.82;1.60;;;3.20;99.90;;;;;;4977861;28;20048;-93
2022/02/05 05:57:19;;;;;;;21.05;3.35;;;3.20;99.90;;;;;;4978446;28;20031;-89
2022/02/05 05:59:45;;;;;;;15.18;2.15;;;3.20;99.90;;;;;;4978601;28;20041;-91
2022/02/05 06:02:11;;;;;;;11.63;1.80;;;3.20;99.90;;;;;;4978230;28;20026;-91
2022/02/05 06:04:37;;;;;;;12.23;1.83;;;3.20;99.90;;;;;;4978395;28;20093;-90
2022/02/05 06:07:03;;;;;;;16.17;3.50;;;3.20;99.90;;;;;;4979864;28;20049;-91
2022/02/05 06:09:35;;;;;;;12.90;1.70;;;3.20;99.90;;;;;;4977948;28;20121;-91
2022/02/05 06:12:01;;;;;;;14.50;2.42;;;3.20;99.90;;;;;;4977961;28;20097;-90
2022/02/05 06:14:28;;;;;;;9.90;1.75;;;3.20;99.90;;;;;;4978078;28;20037;-91
2022/02/05 06:17:02;;;;;;;11.35;1.80;;;3.20;99.90;;;;;;4977315;28;20202;-89
2022/02/05 06:19:28;;;;;;;13.15;1.60;;;3.20;99.90;;;;;;4977748;28;20041;-92
2022/02/05 06:21:54;;;;;;;11.25;1.90;;;3.10;99.90;;;;;;4977352;28;20034;-89
2022/02/05 06:24:19;;;;;;;7.15;2.22;;;3.10;99.90;;;;;;4977313;28;20031;-91
2022/02/05 06:26:45;;;;;;;11.55;2.15;;;3.10;99.90;;;;;;4977462;28;20154;-89
2022/02/05 06:29:10;;;;;;;7.70;1.83;;;3.10;99.90;;;;;;4961744;28;20054;-91
2022/02/05 06:31:36;;;;;;;9.10;1.70;;;3.10;99.90;;;;;;4973780;28;20034;-90
2022/02/05 06:34:03;;;;;;;10.43;1.88;;;3.10;99.90;;;;;;4957899;28;20030;-92
2022/02/05 06:36:28;;;;;;;11.52;1.92;;;3.00;99.90;;;;;;4974797;28;20031;-89
2022/02/05 06:38:54;;;;;;;9.95;2.17;;;3.00;99.90;;;;;;4975642;28;20062;-88
2022/02/05 06:41:20;;;;;;;16.65;1.88;;;3.00;99.90;;;;;;4975143;28;20054;-89
2022/02/05 06:43:46;;;;;;;13.25;1.55;;;3.00;99.90;;;;;;4974443;28;20029;-90
2022/02/05 06:46:11;;;;;;;8.63;1.45;;;3.10;99.90;;;;;;4974965;28;20397;-89
2022/02/05 06:48:37;;;;;;;10.68;2.00;;;3.10;99.90;;;;;;4958716;28;20026;-90
2022/02/05 06:51:03;;;;;;;12.40;2.00;;;3.10;99.90;;;;;;4958494;28;20488;-90
2022/02/05 06:53:29;;;;;;;6.65;1.52;;;3.10;99.90;;;;;;4958523;28;20087;-91
2022/02/05 06:55:54;;;;;;;8.60;2.05;;;3.10;99.90;;;;;;4974533;28;20133;-90
2022/02/05 06:58:20;;;;;;;10.38;2.75;;;3.10;99.90;;;;;;4974321;28;20031;-90
2022/02/05 07:00:47;;;;;;;10.93;1.52;;;3.10;99.90;;;;;;4974588;28;20043;-90
2022/02/05 07:03:16;;;;;;;10.30;1.38;;;3.10;99.90;;;;;;4974284;28;20030;-91
2022/02/05 07:05:43;;;;;;;17.20;2.38;;;3.10;99.90;;;;;;4974401;28;20026;-90
2022/02/05 07:08:08;;;;;;;12.60;1.83;;;3.10;99.90;;;;;;4977752;28;20070;-90
2022/02/05 07:10:35;;;;;;;11.80;1.60;;;3.10;99.90;;;;;;4961781;28;20428;-92
2022/02/05 07:13:12;;;;;;;12.48;1.60;;;3.10;99.90;;;;;;4977639;28;20631;-90
2022/02/05 07:15:43;;;;;;;12.20;1.55;;;3.10;99.90;;;;;;4977350;28;20030;-92
2022/02/05 07:20:45;;;;;;;12.98;1.88;;;3.10;99.90;;;;;;4979162;28;20041;-90
2022/02/05 07:31:24;;;;;;;10.52;1.90;;;3.10;99.90;;;;;;4991805;28;20037;-91
2022/02/05 07:33:50;;;;;;;14.73;1.95;;;3.00;99.90;;;;;;4987783;28;20027;-89
2022/02/05 07:36:16;;;;;;;8.45;1.60;;;3.00;99.90;;;;;;4985709;28;20030;-92
2022/02/05 07:38:44;;;;;;;10.48;1.83;;;3.10;99.90;;;;;;4969714;28;20337;-91
2022/02/05 07:41:10;;;;;;;5.85;1.70;;;3.10;99.90;;;;;;4969750;28;20031;-91
2022/02/05 07:43:36;;;;;;;10.20;1.48;;;3.10;99.90;;;;;;4974993;28;20034;-91
2022/02/05 07:46:09;;;;;;;12.18;1.65;;;3.20;99.90;;;;;;4966639;28;20026;-91
2022/02/05 07:48:35;;;;;;;11.30;2.08;;;3.20;99.90;;;;;;4989192;28;20039;-91
2022/02/05 07:51:01;;;;;;;16.38;2.42;;;3.20;99.90;;;;;;4969132;28;20038;-92
2022/02/05 07:53:28;;;;;;;15.75;2.28;;;3.20;99.90;;;;;;4979122;28;20027;-92
2022/02/05 07:55:53;;;;;;;10.10;2.05;;;3.20;99.90;;;;;;4985252;28;20065;-93
2022/02/05 07:58:19;;;;;;;6.82;2.08;;;3.10;99.90;;;;;;4988438;28;20023;-92
2022/02/05 08:00:45;;;;;;;17.65;2.95;;;3.20;99.90;;;;;;4972687;28;20035;-91
2022/02/05 08:03:11;;;;;;;12.38;2.28;;;3.20;99.90;;;;;;4987641;28;20023;-92
2022/02/05 08:05:37;;;;;;;12.30;2.78;;;3.20;99.90;;;;;;4986522;28;20034;-90
2022/02/05 08:08:08;;;;;;;8.02;2.33;;;3.20;99.90;;;;;;4976602;28;20022;-91
2022/02/05 08:10:37;;;;;;;8.77;2.72;;;3.20;99.90;;;;;;4979962;28;20164;-93
2022/02/05 08:13:03;;;;;;;13.77;2.17;;;3.20;99.90;;;;;;4978501;28;20018;-92
2022/02/05 08:15:31;;;;;;;9.60;2.25;;;3.20;99.90;;;;;;4986012;28;20057;-92
2022/02/05 08:17:58;;;;;;;8.68;2.30;;;3.20;99.90;;;;;;4987858;28;20041;-91
2022/02/05 08:20:24;;;;;;;11.68;2.35;;;3.20;99.90;;;;;;5004855;28;20026;-92
2022/02/05 08:22:53;;;;;;;16.50;2.50;;;3.20;99.90;;;;;;4983450;28;20026;-91
2022/02/05 08:25:19;;;;;;;7.97;2.40;;;3.20;99.90;;;;;;4982483;28;20029;-92
2022/02/05 08:27:45;;;;;;;13.77;2.53;;;3.20;99.90;;;;;;4978651;28;20042;-92
2022/02/05 08:30:13;;;;;;;11.13;2.28;;;3.20;99.90;;;;;;4983460;28;20022;-93
2022/02/05 08:32:40;;;;;;;8.15;2.17;;;3.10;99.90;;;;;;4986871;28;20023;-94
2022/02/05 08:35:07;;;;;;;12.13;2.35;;;3.10;99.90;;;;;;5000504;28;20042;-93
2022/02/05 08:37:44;;;;;;;10.77;2.90;;;3.10;99.90;;;;;;5001883;28;20061;-91
2022/02/05 08:40:10;;;;;;;11.98;2.22;;;3.10;99.90;;;;;;4990395;28;20030;-93
2022/02/05 08:42:36;;;;;;;11.73;2.33;;;3.20;99.90;;;;;;4992476;28;20026;-93
2022/02/05 08:45:05;;;;;;;9.38;2.05;;;3.10;99.90;;;;;;5002578;28;20081;-93
2022/02/05 08:47:31;;;;;;;10.65;2.25;;;3.10;99.90;;;;;;5004211;28;20142;-94
2022/02/05 08:50:00;;;;;;;12.65;3.13;;;3.10;99.90;;;;;;4987907;28;20019;-93
2022/02/05 08:52:27;;;;;;;14.30;2.00;;;3.20;99.90;;;;;;4983882;28;20022;-93
2022/02/05 08:54:53;;;;;;;13.02;2.40;;;3.20;99.90;;;;;;4978479;28;20023;-92
2022/02/05 08:57:19;;;;;;;16.13;2.30;;;3.20;99.90;;;;;;4977062;28;20049;-92
2022/02/05 09:00:04;;;;;;;20.10;2.50;;;3.20;99.90;;;;;;4977870;28;20026;-94
2022/02/05 09:02:43;;;;;;;12.50;2.88;;;3.30;99.90;;;;;;4978296;28;20076;-94
2022/02/05 09:05:16;;;;;;;11.05;2.20;;;3.30;99.90;;;;;;4979754;28;20034;-92
2022/02/05 09:07:44;;;;;;;11.20;2.00;;;3.30;99.90;;;;;;4980269;28;20085;-94
2022/02/05 09:10:26;;;;;;;14.10;2.40;;;3.30;99.90;;;;;;4979340;28;20061;-92
2022/02/05 09:13:25;;;;;;;11.00;1.70;;;3.40;99.90;;;;;;4978806;28;20030;-93
2022/02/05 09:15:51;;;;;;;12.52;2.97;;;3.50;99.90;;;;;;4979870;28;20507;-93
2022/02/05 09:18:17;;;;;;;10.98;2.50;;;3.60;99.90;;;;;;4980321;28;20029;-93
2022/02/05 09:20:44;;;;;;;8.63;2.00;;;3.70;99.90;;;;;;4994523;28;20030;-93
2022/02/05 09:23:13;;;;;;;9.27;1.80;;;3.70;99.90;;;;;;4978464;28;20026;-94
2022/02/05 09:25:41;;;;;;;17.30;2.13;;;3.80;99.90;;;;;;4978416;28;20054;-93
2022/02/05 09:28:09;;;;;;;11.07;2.15;;;3.90;99.90;;;;;;4977830;28;20050;-92
2022/02/05 09:30:50;;;;;;;13.13;2.17;;;4.10;99.90;;;;;;4978186;28;20030;-92
2022/02/05 09:33:17;;;;;;;9.48;1.48;;;4.20;99.90;;;;;;4995121;28;20029;-94
2022/02/05 09:35:43;;;;;;;3.40;0.75;;;4.30;99.90;;;;;;4979199;28;20038;-93
2022/02/05 09:38:10;;;;;;;12.65;2.92;;;4.40;99.90;;;;;;4979708;28;20093;-95
2022/02/05 09:40:35;;;;;;;9.57;1.52;;;4.50;99.90;;;;;;4979561;28;20077;-92
2022/02/05 09:43:01;;;;;;;10.18;2.33;;;4.60;99.90;;;;;;4980153;28;20066;-93
2022/02/05 09:45:27;;;;;;;11.63;1.90;;;4.70;99.90;;;;;;4979870;28;20042;-94
2022/02/05 09:47:55;;;;;;;12.00;1.70;;;4.80;99.90;;;;;;4981578;28;20065;-94
2022/02/05 09:50:22;;;;;;;9.13;1.60;;;4.90;99.90;;;;;;4987540;28;20026;-91
2022/02/05 09:52:53;;;;;;;9.05;2.00;;;5.00;99.90;;;;;;4993914;28;20419;-93
2022/02/05 09:55:20;;;;;;;12.43;2.08;;;5.10;99.90;;;;;;4994412;28;20030;-93
2022/02/05 09:57:48;;;;;;;10.13;2.00;;;5.10;99.90;;;;;;4984822;28;20065;-91
2022/02/05 10:00:20;;;;;;;6.05;1.10;;;5.20;99.90;;;;;;4979659;28;20033;-94
2022/02/05 10:02:54;;;;;;;12.75;2.08;;;5.30;99.90;;;;;;4979401;28;20038;-92
2022/02/05 10:05:23;;;;;;;12.18;2.10;;;5.40;99.90;;;;;;4979517;28;20042;-93
2022/02/05 10:08:07;;;;;;;8.88;1.55;;;5.50;99.90;;;;;;4979075;28;20037;-93
2022/02/05 10:10:43;;;;;;;8.80;1.67;;;5.60;99.90;;;;;;4979179;28;20030;-94
2022/02/05 10:13:16;;;;;;;9.55;2.22;;;5.70;99.90;;;;;;4979369;28;20022;-95
2022/02/05 10:15:42;;;;;;;8.20;1.80;;;5.80;99.90;;;;;;4979153;28;20028;-93
2022/02/05 10:18:25;;;;;;;12.13;1.83;;;5.90;99.90;;;;;;4978862;28;20018;-94
2022/02/05 10:20:53;;;;;;;5.20;1.50;;;6.00;99.90;;;;;;4978703;28;20137;-93
2022/02/05 10:23:19;;;;;;;12.02;2.92;;;6.10;99.90;;;;;;4978915;28;20026;-94
2022/02/05 10:25:50;;;;;;;8.40;1.50;;;6.20;99.90;;;;;;4979160;28;20042;-92
2022/02/05 10:28:16;;;;;;;11.13;2.00;;;6.30;99.90;;;;;;4978561;28;20050;-93
2022/02/05 10:30:48;;;;;;;3.33;1.00;;;6.50;99.90;;;;;;4978750;28;20034;-92
2022/02/05 10:33:24;;;;;;;5.90;1.38;;;6.50;99.90;;;;;;4979907;28;20171;-94
2022/02/05 10:36:11;;;;;;;7.47;1.55;;;6.60;99.90;;;;;;4983253;28;20034;-93
2022/02/05 10:44:12;;;;;;;8.98;1.70;;;6.60;99.90;;;;;;4997887;28;20064;-93
2022/02/05 10:46:43;;;;;;;6.77;1.40;;;6.70;99.90;;;;;;4978300;28;20033;-93
2022/02/05 10:49:10;;;;;;;4.95;1.40;;;6.70;99.90;;;;;;4978730;28;20027;-92
2022/02/05 10:51:45;;;;;;;4.78;1.30;;;6.80;99.90;;;;;;4979829;28;20042;-95
2022/02/05 10:54:25;;;;;;;12.95;2.00;;;6.90;99.90;;;;;;4983052;28;20052;-94
2022/02/05 10:57:11;;;;;;;8.05;1.95;;;6.90;99.90;;;;;;4981013;28;20108;-95
2022/02/05 11:06:09;;;;;;;9.32;2.50;;;7.20;99.90;;;;;;4995682;28;20045;-94
2022/02/05 11:08:22;;;;;;;11.18;1.40;;;7.30;99.90;;;;;;4988756;28;20038;-93
2022/02/05 11:19:02;;;;;;;9.40;1.40;;;7.50;99.90;;;;;;4995220;28;20118;-94
2022/02/05 11:21:33;;;;;;;19.75;1.60;;;7.60;99.90;;;;;;4977425;28;20038;-93
2022/02/05 11:24:04;;;;;;;9.10;1.33;;;7.60;99.90;;;;;;4977394;28;20019;-93
2022/02/05 11:26:31;;;;;;;4.63;1.90;;;7.70;99.90;;;;;;4977862;28;20034;-92
2022/02/05 11:29:04;;;;;;;12.93;1.08;;;7.70;99.90;;;;;;4977268;28;20043;-93
2022/02/05 11:31:43;;;;;;;12.25;1.98;;;7.80;99.90;;;;;;4978127;28;20498;-92
2022/02/05 11:34:32;;;;;;;6.22;1.52;;;7.90;99.90;;;;;;4974243;28;20027;-92
2022/02/05 11:37:07;;;;;;;11.05;1.30;;;8.00;99.90;;;;;;4977823;28;20062;-94
2022/02/05 11:39:46;;;;;;;6.35;1.95;;;8.00;99.90;;;;;;4981395;28;20019;-94
2022/02/05 11:42:36;;;;;;;4.25;1.08;;;8.10;99.90;;;;;;4981195;28;20042;-92
2022/02/05 11:45:33;;;;;;;11.23;1.13;;;8.20;99.90;;;;;;4978210;28;20538;-92
2022/02/05 11:48:37;;;;;;;8.15;1.20;;;8.20;99.90;;;;;;4976934;28;20038;-92
2022/02/05 11:51:19;;;;;;;12.00;1.92;;;8.10;99.90;;;;;;4977579;28;20022;-94
2022/02/05 11:54:00;;;;;;;7.90;2.00;;;8.10;99.90;;;;;;4979814;28;20034;-94
2022/02/05 11:59:49;;;;;;;15.82;2.85;;;8.10;99.90;;;;;;4998735;28;20387;-91
2022/02/05 12:02:30;;;;;;;11.35;2.13;;;8.00;99.90;;;;;;4980517;28;20062;-91
2022/02/05 12:05:21;;;;;;;8.32;1.23;;;7.90;99.90;;;;;;4982769;28;20026;-95
2022/02/05 12:08:14;;;;;;;8.77;1.50;;;7.80;99.90;;;;;;4996590;28;20040;-94
2022/02/05 12:10:56;;;;;;;9.57;2.60;;;7.80;99.90;;;;;;4980198;28;20038;-94
2022/02/05 12:13:27;;;;;;;13.80;2.17;;;7.70;99.90;;;;;;4981571;28;20022;-95
2022/02/05 12:16:05;;;;;;;10.50;1.40;;;7.60;99.90;;;;;;4981221;28;20038;-92
2022/02/05 12:19:13;;;;;;;18.77;2.47;;;7.60;99.90;;;;;;4981595;28;20372;-95
2022/02/05 12:22:03;;;;;;;9.40;1.83;;;7.50;99.90;;;;;;4980221;28;20065;-95
2022/02/05 12:25:11;;;;;;;10.55;1.80;;;7.50;99.90;;;;;;4979605;28;20038;-94
2022/02/05 12:27:40;;;;;;;12.45;2.35;;;7.40;99.90;;;;;;4980691;28;20027;-93
2022/02/05 12:30:38;;;;;;;8.80;2.05;;;7.30;99.90;;;;;;4980265;28;20092;-95
2022/02/05 12:33:05;;;;;;;7.80;1.55;;;7.30;99.90;;;;;;4980216;28;20026;-95
2022/02/05 12:35:33;;;;;;;12.48;2.03;;;7.30;99.90;;;;;;4980511;28;20163;-95
2022/02/05 12:38:06;;;;;;;13.65;2.08;;;7.30;99.90;;;;;;4979950;28;20031;-93
2022/02/05 12:40:43;;;;;;;7.65;1.70;;;7.20;99.90;;;;;;4980706;28;20058;-96
2022/02/05 12:43:10;;;;;;;5.70;2.15;;;7.20;99.90;;;;;;4984401;28;20026;-95
2022/02/05 12:45:47;;;;;;;10.93;1.60;;;7.20;99.90;;;;;;4982900;28;20026;-95
2022/02/05 12:48:17;;;;;;;7.80;1.67;;;7.20;99.90;;;;;;4981778;28;20172;-94
2022/02/05 12:50:44;;;;;;;9.57;1.63;;;7.10;99.90;;;;;;4979589;28;20030;-93
2022/02/05 12:53:10;;;;;;;5.53;1.60;;;7.10;99.90;;;;;;4979735;28;20026;-93
2022/02/05 12:55:47;;;;;;;8.57;1.67;;;7.10;99.90;;;;;;4997406;28;20101;-92
2022/02/05 12:58:17;;;;;;;3.07;0.93;;;7.10;99.90;;;;;;4980828;28;20038;-93
2022/02/05 13:00:43;;;;;;;7.97;1.35;;;7.10;99.90;;;;;;4979918;28;20369;-94
2022/02/05 13:03:30;;;;;;;4.32;1.38;;;7.10;99.90;;;;;;4980420;28;20034;-94
2022/02/05 13:05:56;;;;;;;7.57;1.40;;;7.10;99.90;;;;;;4981905;28;20073;-95
2022/02/05 13:08:22;;;;;;;6.65;1.05;;;7.00;99.90;;;;;;4982179;28;20030;-95
2022/02/05 13:10:50;;;;;;;10.05;2.15;;;7.10;99.90;;;;;;4982912;28;20071;-95
2022/02/05 13:13:33;;;;;;;11.55;2.05;;;7.10;99.90;;;;;;4984707;28;20034;-94
2022/02/05 13:16:05;;;;;;;10.70;2.22;;;7.10;99.90;;;;;;4983391;28;20133;-96
2022/02/05 13:18:44;;;;;;;6.88;2.00;;;7.00;99.90;;;;;;4982956;28;20034;-96
2022/02/05 13:26:58;;;;;;;4.88;1.00;;;7.10;99.90;;;;;;5001622;28;20065;-96
2022/02/05 13:29:55;;;;;;;5.05;1.98;;;7.00;99.90;;;;;;4989551;28;20089;-95
2022/02/05 13:35:09;;;;;;;5.30;0.90;;;7.00;99.90;;;;;;5001348;28;20483;-95
2022/02/05 13:37:50;;;;;;;5.35;1.30;;;7.00;99.90;;;;;;4984701;28;20026;-96
2022/02/05 13:40:24;;;;;;;8.82;0.75;;;7.00;99.90;;;;;;4985233;28;20034;-95
2022/02/05 13:43:19;;;;;;;7.00;1.05;;;7.10;99.90;;;;;;5003084;28;20038;-95
2022/02/05 13:45:49;;;;;;;6.88;1.23;;;7.10;99.90;;;;;;4983150;28;20488;-95
2022/02/05 13:48:25;;;;;;;9.00;1.25;;;7.00;99.90;;;;;;4981720;28;20057;-95
2022/02/05 13:51:02;;;;;;;5.95;1.42;;;7.00;99.90;;;;;;4983612;28;20035;-96
2022/02/05 13:53:27;;;;;;;7.82;1.63;;;7.10;99.90;;;;;;4983038;28;20085;-96
2022/02/05 13:56:07;;;;;;;7.90;1.80;;;7.10;99.90;;;;;;4984704;28;20018;-96
2022/02/05 13:58:38;;;;;;;4.67;1.40;;;7.10;99.90;;;;;;4987578;28;20085;-95
2022/02/05 14:01:05;;;;;;;9.73;1.90;;;7.10;99.90;;;;;;4988497;28;20046;-94
2022/02/05 14:03:40;;;;;;;7.43;2.05;;;7.10;99.90;;;;;;4987276;28;20388;-95
2022/02/05 14:06:28;;;;;;;8.07;1.90;;;7.00;99.90;;;;;;5001646;28;20041;-96
2022/02/05 14:08:57;;;;;;;4.97;1.30;;;7.10;99.90;;;;;;5004525;28;20030;-95
2022/02/05 14:11:33;;;;;;;5.80;1.88;;;7.10;99.90;;;;;;4973808;28;20042;-95
2022/02/05 14:14:18;;;;;;;8.55;1.90;;;7.10;99.90;;;;;;4996544;28;20034;-92
2022/02/05 14:16:46;;;;;;;5.88;0.88;;;7.10;99.90;;;;;;5013034;28;20054;-96
2022/02/05 14:19:32;;;;;;;9.50;1.85;;;7.00;99.90;;;;;;5016113;28;20046;-93
2022/02/05 14:22:24;;;;;;;3.70;1.77;;;7.10;99.90;;;;;;4988532;28;20044;-95
2022/02/05 14:25:18;;;;;;;10.13;4.15;;;7.00;99.90;;;;;;5002145;28;20140;-95
2022/02/05 14:28:14;;;;;;;9.23;2.63;;;7.00;99.90;;;;;;4992596;28;20031;-96
2022/02/05 14:31:01;;;;;;;13.32;1.73;;;7.00;99.90;;;;;;4983415;28;20053;-94
2022/02/05 14:33:37;;;;;;;12.35;2.08;;;7.00;99.90;;;;;;5001550;28;20026;-94
2022/02/05 14:41:25;;;;;;;8.73;1.70;;;7.10;99.90;;;;;;5007662;28;20081;-94
2022/02/05 14:43:54;;;;;;;3.42;1.25;;;7.00;99.90;;;;;;4992629;28;20031;-95
2022/02/05 14:46:24;;;;;;;5.25;1.20;;;7.00;99.90;;;;;;5005308;28;20038;-94
2022/02/05 14:48:50;;;;;;;3.95;1.63;;;7.00;99.90;;;;;;4986927;28;20049;-96
2022/02/05 14:51:17;;;;;;;16.70;1.70;;;7.00;99.90;;;;;;4986585;28;20026;-94
2022/02/05 14:53:44;;;;;;;6.63;1.23;;;7.00;99.90;;;;;;4995693;28;20034;-96
2022/02/05 14:56:11;;;;;;;4.63;0.80;;;7.00;99.90;;;;;;4992136;28;20037;-95
2022/02/05 14:59:11;;;;;;;10.63;3.13;;;7.00;99.90;;;;;;4993011;28;20030;-96
2022/02/05 15:01:38;;;;;;;5.50;1.63;;;7.00;99.90;;;;;;4992531;28;20050;-96
2022/02/05 15:04:06;;;;;;;17.23;2.80;;;7.00;99.90;;;;;;5011257;28;20038;-96
2022/02/05 15:06:36;;;;;;;5.32;1.23;;;7.00;99.90;;;;;;4991828;28;20030;-94
2022/02/05 15:09:05;;;;;;;12.03;2.13;;;7.00;99.90;;;;;;4987733;28;20538;-96
2022/02/05 15:11:39;;;;;;;8.38;1.65;;;7.00;99.90;;;;;;4988853;28;20023;-96
2022/02/05 15:14:08;;;;;;;9.25;2.28;;;7.00;99.90;;;;;;4987161;28;20026;-96
2022/02/05 15:16:37;;;;;;;9.88;1.75;;;7.00;99.90;;;;;;4987510;28;20109;-95
2022/02/05 15:19:09;;;;;;;9.50;2.35;;;7.00;99.90;;;;;;4986150;28;20049;-95
2022/02/05 15:21:39;;;;;;;6.70;1.65;;;7.00;99.90;;;;;;4980246;28;20116;-93
2022/02/05 15:24:09;;;;;;;5.63;1.73;;;7.00;99.90;;;;;;4978240;28;20078;-93
2022/02/05 15:26:41;;;;;;;9.40;3.70;;;7.00;99.90;;;;;;4993257;28;20472;-94
2022/02/05 15:29:10;;;;;;;11.52;2.85;;;7.00;99.90;;;;;;4966780;28;20054;-94
2022/02/05 15:31:48;;;;;;;8.32;2.40;;;7.00;99.90;;;;;;4981956;28;20770;-94
2022/02/05 15:34:16;;;;;;;5.13;1.33;;;7.00;99.90;;;;;;4974308;28;20043;-93
2022/02/05 15:44:42;;;;;;;7.10;1.77;;;7.10;99.90;;;;;;4976136;28;20042;-94
2022/02/05 15:47:15;;;;;;;7.00;2.35;;;7.10;99.90;;;;;;4983745;28;20026;-94
2022/02/05 15:49:43;;;;;;;11.55;2.00;;;7.10;99.90;;;;;;4965970;28;20082;-93
2022/02/05 15:52:14;;;;;;;5.47;1.85;;;7.10;99.90;;;;;;4994029;28;20030;-93
2022/02/05 15:54:42;;;;;;;10.80;2.03;;;7.00;99.90;;;;;;4966790;28;20473;-94
2022/02/05 16:00:27;;;;;;;10.25;2.10;;;7.00;99.90;;;;;;4960920;28;20023;-93
2022/02/05 16:02:57;;;;;;;10.75;1.73;;;7.00;99.90;;;;;;4961357;28;20448;-93
2022/02/05 16:05:25;;;;;;;12.80;2.65;;;7.00;99.90;;;;;;4972420;28;20026;-93
2022/02/05 16:07:57;;;;;;;7.35;1.95;;;7.00;99.90;;;;;;4943501;28;20035;-93
2022/02/05 16:10:33;;;;;;;15.95;2.00;;;7.00;99.90;;;;;;4961602;28;20031;-93
2022/02/05 16:13:01;;;;;;;9.60;1.77;;;7.00;99.90;;;;;;4979440;28;20054;-93